LIPX/VRN METAR and TAF weather

Enter ICAO airport designator
Station Type Date Time Source
LIPX METAR 2020/03/28 08:50 UTC NOAA

LIPX 280850Z VRB01KT 9000 NSC 15/02 Q1015


Station Type Date Time Source
LIPX Decoded METAR 2020/03/28 08:50 UTC NOAA

Verona / Villafranca, Italy (LIPX) 45-23N 010-52E 68M
Mar 28, 2020 - 04:50 AM EDT / 2020.03.28 0850 UTC
Wind: Variable at 1 MPH (1 KT):0
Visibility: 5 mile(s):0
Temperature: 59 F (15 C)
Dew Point: 35 F (2 C)
Relative Humidity: 41%
Pressure (altimeter): 29.97 in. Hg (1015 hPa)
ob: LIPX 280850Z VRB01KT 9000 NSC 15/02 Q1015
cycle: 9

Station Type Date Time Source
LIPX TAF 2014/04/22 15:24 UTC NOAA

TAF LIPX 221400Z 2215/2324 VRB05KT 9999 SCT030 SCT070
TEMPO 2215/2218 SCT025CB SCT080 PROB30
TEMPO 2215/2218 TS

Example: see airport list